Data for 09/21/2006

Time Sea-Level Adjusted Pressure Absolute Pressure Temperature Relative Humidity Dew Point   
(mb) (inHg) (mb) (inHg) (C) (F) (%) (C) (F)
00:05 1011 29.85 841 24.83 8 46.4 89 6.3 43.3
00:10 1011 29.85 841 24.83 8 46.5 89 6.4 43.5
00:15 1011 29.85 841 24.83 8.2 46.8 88 6.3 43.3
00:20 1011 29.85 841 24.83 8.4 47.1 85 6 42.8
00:25 1011 29.85 840 24.81 8.5 47.3 87 6.5 43.6
00:30 1011 29.85 840 24.81 8.4 47.2 88 6.6 43.9
00:35 1011 29.85 840 24.81 8.3 46.9 88 6.5 43.6
00:40 1011 29.85 840 24.81 8.3 46.9 88 6.5 43.7
00:45 1011 29.85 840 24.81 8 46.3 91 6.6 44
00:50 1011 29.85 840 24.81 7.8 46 92 6.6 43.9
00:55 1011 29.85 840 24.81 7.7 45.8 93 6.6 43.9
01:00 1011 29.85 840 24.81 7.6 45.7 92 6.4 43.5
01:05 1011 29.85 840 24.81 7.7 45.9 92 6.5 43.6
01:10 1011 29.85 840 24.81 7.6 45.7 92 6.3 43.4
01:15 1011 29.85 840 24.81 7.7 45.9 90 6.2 43.1
01:20 1011 29.85 840 24.81 7.6 45.6 89 6 42.7
01:25 1011 29.85 840 24.81 7.6 45.6 89 5.9 42.5
01:30 1011 29.85 840 24.81 7.5 45.4 90 5.9 42.6
01:35 1011 29.85 840 24.81 7.4 45.3 87 5.4 41.8
01:40 1011 29.85 840 24.81 7.3 45.1 86 5.2 41.3
01:45 1011 29.85 840 24.81 7.3 45.1 85 5 40.9
01:50 1011 29.85 840 24.81 7.3 45.1 85 4.9 40.8
01:55 1011 29.85 840 24.81 7.4 45.3 84 4.8 40.7
02:00 1011 29.85 840 24.81 7.5 45.5 86 5.3 41.5
02:05 1011 29.85 840 24.81 7.6 45.6 85 5.3 41.5
02:10 1011 29.85 840 24.81 7.5 45.5 86 5.3 41.6
02:15 1011 29.85 840 24.81 7.4 45.4 86 5.2 41.4
02:20 1010 29.83 840 24.81 7.5 45.5 85 5.1 41.2
02:25 1010 29.83 840 24.81 7.5 45.5 83 4.9 40.8
02:30 1010 29.83 840 24.81 7.6 45.7 82 4.8 40.6
02:35 1010 29.83 840 24.81 7.6 45.7 85 5.2 41.4
02:40 1010 29.83 840 24.81 7.6 45.6 85 5.3 41.5
02:45 1010 29.83 840 24.81 7.6 45.7 86 5.4 41.7
02:50 1010 29.83 840 24.81 7.4 45.3 85 5.1 41.2
02:55 1010 29.83 840 24.81 7.7 45.8 81 4.7 40.5
03:00 1010 29.83 840 24.81 7.9 46.2 84 5.4 41.8
03:05 1010 29.83 840 24.81 7.7 45.9 85 5.3 41.6
03:10 1010 29.83 840 24.81 7.6 45.7 85 5.2 41.3
03:15 1010 29.83 840 24.81 7.5 45.5 85 5.2 41.4
03:20 1010 29.83 840 24.81 7.4 45.2 87 5.3 41.6
03:25 1010 29.83 840 24.81 7.2 44.9 87 5.2 41.4
03:30 1010 29.83 840 24.81 7.1 44.7 88 5.2 41.3
03:35 1010 29.83 839 24.78 7 44.6 87 5 41.1
03:40 1010 29.83 839 24.78 6.9 44.5 88 5.1 41.2
03:45 1010 29.83 839 24.78 6.9 44.5 90 5.3 41.6
03:50 1010 29.83 839 24.78 6.9 44.4 89 5.3 41.5
03:55 1010 29.83 839 24.78 6.8 44.3 89 5.1 41.3
04:00 1010 29.83 839 24.78 6.6 43.9 90 5 41.1
04:05 1010 29.83 839 24.78 6.5 43.6 91 5.1 41.2
04:10 1010 29.83 839 24.78 6.3 43.4 91 5 41
04:15 1010 29.83 839 24.78 6.2 43.1 92 5 41
04:20 1010 29.83 839 24.78 6.2 43.1 92 5 41
04:25 1010 29.83 839 24.78 6 42.8 92 4.9 40.8
04:30 1010 29.83 839 24.78 6 42.8 92 4.9 40.8
04:35 1010 29.83 839 24.78 6 42.7 93 4.9 40.9
04:40 1010 29.83 839 24.78 6 42.8 92 4.9 40.8
04:45 1010 29.83 839 24.78 6 42.7 92 4.7 40.5
04:50 1010 29.83 839 24.78 5.9 42.7 93 4.9 40.8
04:55 1010 29.83 839 24.78 5.9 42.6 94 4.9 40.9
05:00 1010 29.83 839 24.78 5.7 42.3 94 4.9 40.8
05:05 1010 29.83 839 24.78 5.6 42.1 94 4.8 40.7
05:10 1009 29.8 839 24.78 5.6 42.1 95 4.9 40.8
05:15 1009 29.8 839 24.78 5.5 41.9 95 4.8 40.7
05:20 1009 29.8 839 24.78 5.5 41.9 96 4.9 40.8
05:25 1009 29.8 838 24.75 5.6 42.1 96 5 40.9
05:30 1009 29.8 838 24.75 5.6 42.1 95 4.9 40.9
05:35 1009 29.8 838 24.75 5.7 42.3 95 5 40.9
05:40 1009 29.8 838 24.75 5.8 42.4 94 4.8 40.7
05:45 1009 29.8 838 24.75 5.9 42.6 93 4.8 40.7
05:50 1009 29.8 839 24.78 6.1 43 93 5 41
05:55 1009 29.8 839 24.78 6.3 43.3 93 5.3 41.6
06:00 1009 29.8 838 24.75 6.4 43.5 93 5.3 41.5
06:05 1009 29.8 838 24.75 6.3 43.4 92 5.2 41.3
06:10 1009 29.8 838 24.75 6.2 43.2 92 5.1 41.1
06:15 1009 29.8 838 24.75 6 42.9 93 4.9 40.9
06:20 1009 29.8 838 24.75 6 42.8 93 5 41
06:25 1009 29.8 838 24.75 6.1 43 93 5.1 41.2
06:30 1009 29.8 838 24.75 6.1 42.9 93 5 41.1
06:35 1009 29.8 838 24.75 6.1 43 93 5.1 41.2
06:40 1009 29.8 838 24.75 6.1 42.9 94 5.1 41.2
06:45 1009 29.8 838 24.75 6.1 43 93 5.1 41.1
06:50 1009 29.8 838 24.75 6.1 42.9 93 5 41
06:55 1009 29.8 838 24.75 6 42.8 93 4.9 40.9
07:00 1009 29.8 838 24.75 6 42.9 92 4.9 40.8
07:05 1009 29.8 838 24.75 6 42.8 93 4.9 40.9
07:10 1009 29.8 838 24.75 6.2 43.2 92 5 41
07:15 1009 29.8 838 24.75 6.3 43.4 92 5.1 41.2
07:20 1009 29.8 838 24.75 6.3 43.4 93 5.3 41.5
07:25 1009 29.8 838 24.75 6.4 43.4 91 5 41
07:30 1009 29.8 838 24.75 6.6 43.8 88 4.7 40.4
07:35 1009 29.8 838 24.75 6.5 43.8 88 4.8 40.6
07:40 1009 29.8 838 24.75 6.5 43.8 88 4.6 40.4
07:45 1009 29.8 838 24.75 6.6 43.8 88 4.7 40.5
07:50 1009 29.8 838 24.75 6.5 43.7 89 4.7 40.5
07:55 1009 29.8 838 24.75 6.6 43.8 89 4.9 40.8
08:00 1009 29.8 838 24.75 6.6 43.9 89 4.9 40.9
08:05 1009 29.8 838 24.75 6.6 43.8 90 5 41
08:10 1009 29.8 838 24.75 6.5 43.6 91 5.1 41.2
08:15 1009 29.8 838 24.75 6.3 43.4 92 5.1 41.1
08:20 1009 29.8 838 24.75 6.5 43.8 92 5.3 41.6
08:25 1009 29.8 838 24.75 6.7 44 91 5.2 41.4
08:30 1009 29.8 838 24.75 6.7 44.1 90 5.2 41.4
08:35 1009 29.8 838 24.75 6.8 44.2 89 5.1 41.2
08:40 1009 29.8 838 24.75 6.7 44.1 89 5.1 41.2
08:45 1009 29.8 838 24.75 6.8 44.3 90 5.2 41.4
08:50 1009 29.8 838 24.75 7.1 44.7 89 5.4 41.6
08:55 1009 29.8 838 24.75 7 44.6 88 5.2 41.3
09:00 1009 29.8 838 24.75 7.1 44.7 87 5 41.1
09:05 1009 29.8 838 24.75 7.2 45 86 5 41
09:10 1009 29.8 838 24.75 7.5 45.5 85 5.1 41.2
09:15 1009 29.8 838 24.75 7.6 45.6 85 5.2 41.4
09:20 1009 29.8 838 24.75 7.8 46 84 5.3 41.5
09:25 1008 29.77 838 24.75 7.9 46.2 85 5.5 41.9
09:30 1009 29.8 838 24.75 7.9 46.3 83 5.2 41.4
09:35 1009 29.8 838 24.75 8.1 46.5 83 5.4 41.8
09:40 1008 29.77 838 24.75 8.9 48 77 5 41
09:45 1008 29.77 838 24.75 9.3 48.7 76 5.3 41.6
09:50 1008 29.77 838 24.75 9.6 49.3 75 5.4 41.7
09:55 1008 29.77 838 24.75 9.8 49.7 72 5.1 41.1
10:00 1009 29.8 838 24.75 9.4 48.9 77 5.5 42
10:05 1009 29.8 838 24.75 9.4 48.9 75 5.2 41.3
10:10 1008 29.77 838 24.75 9.5 49.1 75 5.4 41.7
10:15 1009 29.8 838 24.75 9.9 49.7 71 4.9 40.8
10:20 1009 29.8 838 24.75 10 50 74 5.6 42
10:25 1008 29.77 838 24.75 10.5 50.8 72 5.7 42.3
10:30 1008 29.77 838 24.75 11.2 52.1 67 5.4 41.7
10:35 1008 29.77 838 24.75 10.5 50.9 70 5.4 41.7
10:40 1008 29.77 837 24.72 9.5 49.2 73 4.9 40.8
10:45 1008 29.77 838 24.75 9.9 49.7 71 4.9 40.8
10:50 1008 29.77 838 24.75 10.9 51.6 66 4.8 40.6
10:55 1008 29.77 837 24.72 12 53.5 58 4.1 39.4
11:00 1008 29.77 837 24.72 12.1 53.7 61 4.7 40.5
11:05 1008 29.77 837 24.72 11.7 53.1 59 4.1 39.3
11:10 1008 29.77 837 24.72 11.4 52.5 60 4 39.2
11:15 1008 29.77 837 24.72 11.2 52.2 59 3.7 38.6
11:20 1008 29.77 837 24.72 11.1 52.1 62 4.2 39.6
11:25 1008 29.77 837 24.72 11.1 52 62 4.2 39.5
11:30 1008 29.77 837 24.72 11.2 52.1 61 4 39.2
11:35 1008 29.77 837 24.72 11.4 52.5 59 3.8 38.8
11:40 1008 29.77 837 24.72 11.9 53.5 58 3.9 39
11:45 1008 29.77 837 24.72 12.2 53.9 60 4.7 40.5
11:50 1008 29.77 837 24.72 12 53.6 59 4.3 39.8
11:55 1008 29.77 837 24.72 11.8 53.2 57 3.7 38.7
12:00 1008 29.77 837 24.72 11.6 52.9 59 4 39.2
12:05 1008 29.77 837 24.72 11.4 52.6 61 4.1 39.4
12:10 1008 29.77 837 24.72 11.9 53.4 56 3.6 38.4
12:15 1008 29.77 837 24.72 11.7 53 56 3.4 38
12:20 1007 29.74 837 24.72 11.6 52.9 57 3.4 38.2
12:25 1007 29.74 837 24.72 11.9 53.5 56 3.4 38.1
12:30 1007 29.74 837 24.72 11.7 53.1 61 4.4 40
12:35 1007 29.74 837 24.72 11.8 53.2 58 3.9 39.1
12:40 1007 29.74 836 24.69 11 51.7 62 4.1 39.4
12:45 1007 29.74 836 24.69 10.9 51.6 60 3.4 38.1
12:50 1007 29.74 836 24.69 10.9 51.5 61 3.8 38.8
12:55 1007 29.74 836 24.69 10.9 51.7 61 3.8 38.8
13:00 1007 29.74 836 24.69 11 51.7 61 3.7 38.6
13:05 1007 29.74 836 24.69 11 51.7 61 3.8 38.9
13:10 1007 29.74 836 24.69 10.3 50.5 66 4.2 39.5
13:15 1007 29.74 836 24.69 8.7 47.7 70 3.6 38.4
13:20 1007 29.74 836 24.69 7.9 46.2 69 2.6 36.7
13:25 1007 29.74 836 24.69 8.1 46.6 76 4.1 39.3
13:30 1007 29.74 836 24.69 8.2 46.8 75 4 39.2
13:35 1007 29.74 836 24.69 7.8 46 82 5 40.9
13:40 1007 29.74 836 24.69 8 46.4 76 4.1 39.4
13:45 1007 29.74 836 24.69 8.1 46.6 72 3.4 38.2
13:50 1007 29.74 836 24.69 8.2 46.7 72 3.5 38.2
13:55 1007 29.74 836 24.69 8.7 47.7 76 4.8 40.6
14:00 1007 29.74 836 24.69 10.1 50.2 70 4.9 40.9
14:05 1007 29.74 836 24.69 10.8 51.5 58 2.9 37.1
14:10 1007 29.74 836 24.69 9.6 49.2 72 4.8 40.6
14:15 1007 29.74 836 24.69 8.1 46.6 73 3.6 38.5
14:20 1007 29.74 836 24.69 8 46.4 74 3.6 38.4
14:25 1007 29.74 836 24.69 8.4 47.1 72 3.6 38.4
14:30 1007 29.74 836 24.69 8.6 47.5 68 3.1 37.6
14:35 1007 29.74 836 24.69 8.7 47.7 68 3.2 37.8
14:40 1007 29.74 836 24.69 8.9 48.1 68 3.4 38.1
14:45 1007 29.74 836 24.69 9 48.3 69 3.7 38.7
14:50 1007 29.74 836 24.69 8.9 48 69 3.5 38.3
14:55 1007 29.74 836 24.69 8.9 47.9 71 3.8 38.9
15:00 1006 29.71 836 24.69 9 48.3 73 4.4 39.9
15:05 1006 29.71 836 24.69 9.1 48.4 68 3.6 38.4
15:10 1006 29.71 836 24.69 9.7 49.4 68 4 39.2
15:15 1006 29.71 836 24.69 10.3 50.5 64 3.7 38.7
15:20 1006 29.71 836 24.69 10.1 50.2 63 3.4 38.1
15:25 1006 29.71 836 24.69 10 50.1 62 3.2 37.7
15:30 1007 29.74 836 24.69 10.1 50.1 66 4 39.2
15:35 1007 29.74 837 24.72 9.3 48.7 68 3.7 38.7
15:40 1008 29.77 837 24.72 7 44.6 81 4 39.2
15:45 1008 29.77 837 24.72 5.5 41.9 85 3.1 37.7
15:50 1008 29.77 837 24.72 4.8 40.6 88 3 37.4
15:55 1008 29.77 837 24.72 4.4 40 88 2.7 36.8
16:00 1008 29.77 837 24.72 4.4 39.9 88 2.5 36.5
16:05 1008 29.77 837 24.72 4.7 40.5 87 2.8 37.1
16:10 1008 29.77 838 24.75 5 41 87 2.9 37.3
16:15 1008 29.77 838 24.75 5.1 41.1 87 3 37.4
16:20 1009 29.8 838 24.75 5.2 41.3 88 3.3 38
16:25 1009 29.8 838 24.75 5 41 86 2.9 37.2
16:30 1009 29.8 838 24.75 4.7 40.5 87 2.7 36.9
16:35 1009 29.8 838 24.75 4.6 40.3 90 3.2 37.7
16:40 1009 29.8 838 24.75 4.9 40.7 86 2.8 37
16:45 1009 29.8 838 24.75 5 41 85 2.8 37
16:50 1009 29.8 838 24.75 4.8 40.7 88 3 37.5
16:55 1009 29.8 838 24.75 4.4 40 91 3.1 37.5
17:00 1009 29.8 838 24.75 4.4 39.9 92 3.2 37.8
17:05 1009 29.8 838 24.75 4.3 39.8 92 3.1 37.6
17:10 1009 29.8 838 24.75 4 39.3 92 2.9 37.2
17:15 1009 29.8 838 24.75 4 39.1 93 2.9 37.2
17:20 1009 29.8 838 24.75 3.9 39 91 2.5 36.5
17:25 1009 29.8 838 24.75 3.8 38.8 90 2.3 36.2
17:30 1009 29.8 838 24.75 3.7 38.7 91 2.3 36.2
17:35 1009 29.8 838 24.75 3.9 39 90 2.4 36.3
17:40 1009 29.8 838 24.75 4 39.2 88 2.3 36.1
17:45 1009 29.8 838 24.75 4.1 39.4 88 2.3 36.2
17:50 1009 29.8 838 24.75 4.4 40 87 2.4 36.3
17:55 1009 29.8 838 24.75 4.9 40.7 85 2.6 36.7
18:00 1009 29.8 838 24.75 5 41 85 2.7 36.9
18:05 1009 29.8 838 24.75 5 41.1 86 2.8 37.1
18:10 1009 29.8 838 24.75 5.1 41.2 83 2.5 36.4
18:15 1009 29.8 838 24.75 5.2 41.3 83 2.5 36.5
18:20 1009 29.8 838 24.75 5.2 41.4 83 2.6 36.7
18:25 1009 29.8 838 24.75 5.1 41.1 87 3.1 37.7
18:30 1009 29.8 838 24.75 5 41 88 3.1 37.6
18:35 1009 29.8 838 24.75 5.2 41.3 88 3.3 38
18:40 1009 29.8 838 24.75 5 41.1 88 3.3 37.9
18:45 1009 29.8 838 24.75 5 41 90 3.4 38.2
18:50 1009 29.8 838 24.75 5 41 90 3.5 38.3
18:55 1009 29.8 838 24.75 4.9 40.8 91 3.5 38.3
19:00 1009 29.8 838 24.75 4.9 40.8 90 3.4 38.2
19:05 1009 29.8 838 24.75 4.7 40.5 91 3.4 38.1
19:10 1009 29.8 838 24.75 4.7 40.5 91 3.4 38.1
19:15 1009 29.8 838 24.75 4.9 40.8 90 3.3 38
19:20 1009 29.8 838 24.75 5.1 41.1 84 2.5 36.6
19:25 1009 29.8 838 24.75 5.1 41.1 83 2.4 36.4
19:30 1009 29.8 839 24.78 5.1 41.1 83 2.4 36.4
19:35 1009 29.8 839 24.78 4.9 40.7 85 2.5 36.5
19:40 1009 29.8 839 24.78 4.7 40.4 86 2.5 36.5
19:45 1009 29.8 839 24.78 4.5 40 87 2.5 36.5
19:50 1009 29.8 839 24.78 4.2 39.5 89 2.5 36.6
19:55 1009 29.8 839 24.78 4.3 39.7 88 2.5 36.5
20:00 1010 29.83 839 24.78 4.6 40.3 86 2.5 36.4
20:05 1010 29.83 839 24.78 4.8 40.6 84 2.3 36.1
20:10 1010 29.83 839 24.78 4.8 40.7 87 2.9 37.3
20:15 1010 29.83 839 24.78 4.3 39.8 89 2.7 36.9
20:20 1010 29.83 839 24.78 4.3 39.7 88 2.5 36.4
20:25 1010 29.83 839 24.78 4.3 39.7 86 2.2 36
20:30 1010 29.83 839 24.78 4.3 39.8 86 2.3 36.1
20:35 1010 29.83 839 24.78 4.3 39.7 88 2.5 36.6
20:40 1010 29.83 839 24.78 4.3 39.8 91 2.9 37.3
20:45 1010 29.83 839 24.78 4.1 39.5 89 2.5 36.4
20:50 1010 29.83 839 24.78 4 39.2 89 2.4 36.3
20:55 1010 29.83 839 24.78 4.1 39.4 90 2.7 36.8
21:00 1010 29.83 839 24.78 4.1 39.3 87 2.1 35.7
21:05 1010 29.83 839 24.78 4.1 39.3 86 2 35.5
21:10 1010 29.83 839 24.78 4.1 39.4 86 1.9 35.4
21:15 1010 29.83 839 24.78 4.2 39.5 86 2.1 35.7
21:20 1010 29.83 839 24.78 4.3 39.7 88 2.5 36.5
21:25 1010 29.83 839 24.78 4.3 39.7 87 2.4 36.3
21:30 1010 29.83 839 24.78 4.4 40 87 2.4 36.4
21:35 1010 29.83 839 24.78 4.9 40.7 84 2.4 36.4
21:40 1010 29.83 840 24.81 5.2 41.3 83 2.5 36.6
21:45 1010 29.83 840 24.81 5.2 41.4 82 2.4 36.4
21:50 1010 29.83 840 24.81 5.2 41.3 82 2.4 36.3
21:55 1010 29.83 840 24.81 5.1 41.2 82 2.4 36.2
22:00 1011 29.85 840 24.81 5.2 41.3 83 2.5 36.5
22:05 1011 29.85 840 24.81 5.2 41.4 82 2.3 36.2
22:10 1011 29.85 840 24.81 5.3 41.5 82 2.5 36.5
22:15 1011 29.85 840 24.81 5.3 41.6 81 2.4 36.3
22:20 1011 29.85 840 24.81 5.5 42 79 2.1 35.8
22:25 1011 29.85 840 24.81 5.6 42 78 2.1 35.7
22:30 1011 29.85 840 24.81 5.6 42.1 78 2.1 35.8
22:35 1011 29.85 840 24.81 5.7 42.2 79 2.3 36.1
22:40 1011 29.85 840 24.81 5.8 42.4 78 2.3 36.1
22:45 1011 29.85 840 24.81 5.7 42.3 79 2.3 36.2
22:50 1011 29.85 840 24.81 5.8 42.4 80 2.7 36.8
22:55 1011 29.85 840 24.81 5.8 42.5 81 2.7 36.9
23:00 1011 29.85 840 24.81 5.8 42.5 81 2.9 37.3
23:05 1011 29.85 840 24.81 5.8 42.4 84 3.2 37.7
23:10 1011 29.85 840 24.81 5.7 42.2 86 3.5 38.3
23:15 1011 29.85 840 24.81 5.5 41.9 88 3.6 38.5
23:20 1011 29.85 841 24.83 5.4 41.7 89 3.7 38.6
23:25 1011 29.85 841 24.83 5.4 41.6 89 3.7 38.7
23:30 1011 29.85 841 24.83 5.3 41.5 89 3.6 38.6
23:35 1011 29.85 841 24.83 5.3 41.6 90 3.8 38.9
23:40 1011 29.85 841 24.83 5.3 41.6 91 3.9 39.1
23:45 1012 29.88 841 24.83 5.3 41.6 91 4 39.2
23:50 1012 29.88 841 24.83 5.3 41.6 92 4.1 39.4
23:55 1012 29.88 841 24.83 5.4 41.6 92 4.1 39.4
24:00 1012 29.88 841 24.83 5.3 41.5 92 4.1 39.4